createdAt,value
2022-08-25T00:00:21.973Z,20.65
2022-08-25T00:02:56.199Z,20.88
2022-08-25T00:05:29.309Z,20.40
2022-08-25T00:07:58.534Z,20.89
2022-08-25T00:10:28.753Z,20.81
2022-08-25T00:12:57.542Z,20.86
2022-08-25T00:15:26.672Z,20.83
2022-08-25T00:17:55.520Z,20.66
2022-08-25T00:20:25.441Z,20.59
2022-08-25T00:22:55.301Z,20.78
2022-08-25T00:25:25.046Z,20.71
2022-08-25T00:27:55.403Z,20.73
2022-08-25T00:30:24.396Z,20.74
2022-08-25T00:32:55.463Z,20.67
2022-08-25T00:35:27.844Z,20.61
2022-08-25T00:37:57.359Z,20.78
2022-08-25T00:40:28.437Z,20.60
2022-08-25T00:42:59.105Z,20.67
2022-08-25T00:45:28.613Z,20.62
2022-08-25T00:48:00.101Z,20.73
2022-08-25T00:50:30.422Z,20.15
2022-08-25T00:53:03.330Z,20.47
2022-08-25T00:55:35.617Z,20.66
2022-08-25T00:58:11.699Z,20.48
2022-08-25T01:00:44.345Z,20.40
2022-08-25T01:03:16.237Z,20.38
2022-08-25T01:05:46.698Z,20.40
2022-08-25T01:08:21.245Z,20.36
2022-08-25T01:10:51.370Z,20.34
2022-08-25T01:13:27.732Z,20.03
2022-08-25T01:15:58.987Z,20.19
2022-08-25T01:18:28.498Z,20.27
2022-08-25T01:21:00.893Z,20.28
2022-08-25T01:23:29.843Z,20.41
2022-08-25T01:26:04.922Z,20.27
2022-08-25T01:28:33.966Z,20.36
2022-08-25T01:31:03.026Z,20.34
2022-08-25T01:33:32.191Z,20.56
2022-08-25T01:36:03.349Z,20.32
2022-08-25T01:38:32.411Z,19.42
2022-08-25T01:41:01.228Z,20.25
2022-08-25T01:43:37.158Z,20.21
2022-08-25T01:46:06.807Z,20.15
2022-08-25T01:48:35.817Z,19.90
2022-08-25T01:51:06.015Z,20.04
2022-08-25T01:53:34.876Z,20.06
2022-08-25T01:56:11.602Z,20.13
2022-08-25T01:58:43.141Z,20.11
2022-08-25T02:01:16.051Z,20.00
2022-08-25T02:03:47.997Z,19.68
2022-08-25T02:06:21.866Z,20.00
2022-08-25T02:09:01.208Z,19.93
2022-08-25T02:11:30.129Z,19.45
2022-08-25T02:13:59.221Z,19.39
2022-08-25T02:16:31.883Z,19.79
2022-08-25T02:19:01.772Z,19.73
2022-08-25T02:21:32.577Z,19.71
2022-08-25T02:24:01.395Z,19.70
2022-08-25T02:26:30.275Z,19.63
2022-08-25T02:28:59.035Z,19.75
2022-08-25T02:31:28.577Z,19.84
2022-08-25T02:33:58.041Z,19.88
2022-08-25T02:36:27.108Z,19.67
2022-08-25T02:38:57.480Z,19.73
2022-08-25T02:41:31.375Z,19.54
2022-08-25T02:44:01.751Z,19.70
2022-08-25T02:46:31.215Z,19.63
2022-08-25T02:49:00.416Z,19.52
2022-08-25T02:51:30.559Z,19.55
2022-08-25T02:54:03.230Z,19.55
2022-08-25T02:56:33.449Z,19.43
2022-08-25T02:59:03.098Z,19.46
2022-08-25T03:01:33.438Z,19.38
2022-08-25T03:04:02.980Z,19.45
2022-08-25T03:06:31.872Z,19.53
2022-08-25T03:09:02.668Z,19.64
2022-08-25T03:11:31.907Z,19.61
2022-08-25T03:14:00.784Z,19.65
2022-08-25T03:16:29.587Z,19.57
2022-08-25T03:18:59.517Z,19.68
2022-08-25T03:21:30.459Z,19.71
2022-08-25T03:24:01.556Z,19.72
2022-08-25T03:26:47.635Z,19.69
2022-08-25T03:29:16.419Z,19.67
2022-08-25T03:31:45.864Z,19.76
2022-08-25T03:34:16.861Z,19.82
2022-08-25T03:36:47.142Z,19.85
2022-08-25T03:39:17.818Z,19.88
2022-08-25T03:41:47.308Z,19.86
2022-08-25T03:44:16.894Z,19.93
2022-08-25T03:46:47.639Z,20.07
2022-08-25T03:49:19.095Z,20.45
2022-08-25T03:51:50.318Z,20.04
2022-08-25T03:54:23.322Z,20.08
2022-08-25T03:56:52.341Z,20.21
2022-08-25T03:59:21.461Z,20.19
2022-08-25T04:01:54.991Z,20.36
2022-08-25T04:04:24.675Z,20.24
2022-08-25T04:06:54.038Z,19.95
2022-08-25T04:09:24.294Z,20.37
2022-08-25T04:11:53.683Z,20.40
2022-08-25T04:14:24.688Z,20.40
2022-08-25T04:16:54.237Z,20.49
2022-08-25T04:19:23.531Z,20.10
2022-08-25T04:21:54.523Z,20.66
2022-08-25T04:24:26.799Z,20.71
2022-08-25T04:26:55.936Z,20.36
2022-08-25T04:29:26.627Z,20.31
2022-08-25T04:31:56.716Z,20.88
2022-08-25T04:34:29.419Z,21.07
2022-08-25T04:37:01.604Z,20.86
2022-08-25T04:39:32.359Z,20.94
2022-08-25T04:42:01.467Z,21.04
2022-08-25T04:44:31.973Z,21.28
2022-08-25T04:47:02.660Z,21.24
2022-08-25T04:49:32.238Z,21.05
2022-08-25T04:52:01.120Z,21.05
2022-08-25T04:54:36.040Z,21.17
2022-08-25T04:57:07.081Z,21.25
2022-08-25T04:59:36.006Z,20.88
2022-08-25T05:02:06.717Z,21.09
2022-08-25T05:04:37.582Z,21.37
2022-08-25T05:07:06.710Z,21.32
2022-08-25T05:09:37.850Z,21.46
2022-08-25T05:12:07.164Z,21.47
2022-08-25T05:14:36.141Z,21.64
2022-08-25T05:17:05.042Z,21.53
2022-08-25T05:19:33.962Z,21.54
2022-08-25T05:22:02.771Z,21.79
2022-08-25T05:24:31.762Z,21.95
2022-08-25T05:27:03.302Z,21.86
2022-08-25T05:29:32.147Z,21.95
2022-08-25T05:32:01.004Z,21.91
2022-08-25T05:34:30.276Z,21.88
2022-08-25T05:37:00.267Z,22.01
2022-08-25T05:39:32.662Z,22.35
2022-08-25T05:42:02.746Z,22.05
2022-08-25T05:44:31.687Z,22.21
2022-08-25T05:47:00.498Z,22.26
2022-08-25T05:49:29.491Z,22.26
2022-08-25T05:51:58.271Z,22.39
2022-08-25T05:54:27.188Z,22.29
2022-08-25T05:56:56.471Z,22.50
2022-08-25T05:59:26.675Z,22.97
2022-08-25T06:02:12.814Z,23.41
2022-08-25T06:04:41.632Z,22.75
2022-08-25T06:07:10.665Z,22.51
2022-08-25T06:09:40.026Z,22.59
2022-08-25T06:12:09.919Z,22.88
2022-08-25T06:14:40.097Z,23.15
2022-08-25T06:17:08.931Z,23.15
2022-08-25T06:19:39.770Z,23.15
2022-08-25T06:22:10.254Z,22.88
2022-08-25T06:24:38.986Z,23.30
2022-08-25T06:27:07.668Z,23.47
2022-08-25T06:29:36.559Z,23.38
2022-08-25T06:32:08.971Z,23.69
2022-08-25T06:34:37.743Z,23.69
2022-08-25T06:37:06.914Z,23.72
2022-08-25T06:39:35.703Z,23.68
2022-08-25T06:42:04.611Z,23.81
2022-08-25T06:44:34.081Z,23.95
2022-08-25T06:47:03.020Z,23.90
2022-08-25T06:49:36.235Z,23.97
2022-08-25T06:52:05.898Z,23.70
2022-08-25T06:54:34.684Z,24.34
2022-08-25T06:57:04.623Z,24.39
2022-08-25T06:59:33.595Z,24.45
2022-08-25T07:02:03.201Z,24.71
2022-08-25T07:04:34.706Z,24.96
2022-08-25T07:07:03.748Z,25.08
2022-08-25T07:09:36.306Z,25.19
2022-08-25T07:12:08.805Z,24.87
2022-08-25T07:14:38.031Z,25.06
2022-08-25T07:17:12.443Z,25.48
2022-08-25T07:19:42.978Z,25.52
2022-08-25T07:22:12.844Z,25.37
2022-08-25T07:24:42.595Z,25.44
2022-08-25T07:27:11.568Z,25.60
2022-08-25T07:29:42.624Z,25.80
2022-08-25T07:32:11.863Z,25.88
2022-08-25T07:34:59.806Z,26.05
2022-08-25T07:37:47.935Z,26.18
2022-08-25T07:40:21.348Z,26.07
2022-08-25T07:42:51.769Z,26.12
2022-08-25T07:45:25.579Z,26.44
2022-08-25T07:47:54.604Z,26.65
2022-08-25T07:50:24.879Z,26.33
2022-08-25T07:52:55.205Z,26.67
2022-08-25T07:55:24.824Z,26.36
2022-08-25T07:57:55.992Z,26.67
2022-08-25T08:00:27.939Z,27.10
2022-08-25T08:02:57.782Z,27.29
2022-08-25T08:05:29.473Z,27.15
2022-08-25T08:07:59.585Z,27.53
2022-08-25T08:13:18.808Z,27.62
2022-08-25T08:15:48.814Z,27.80
2022-08-25T08:18:18.387Z,28.07
2022-08-25T08:20:50.114Z,28.04
2022-08-25T08:23:19.014Z,28.51
2022-08-25T08:25:48.262Z,28.57
2022-08-25T08:28:17.227Z,28.37
2022-08-25T08:30:53.014Z,28.47
2022-08-25T08:33:24.808Z,28.59
2022-08-25T08:36:05.041Z,29.03
2022-08-25T08:38:35.019Z,29.16
2022-08-25T08:42:09.774Z,29.08
2022-08-25T08:44:51.577Z,29.30
2022-08-25T08:47:30.203Z,29.44
2022-08-25T08:50:06.704Z,29.27
2022-08-25T08:52:44.547Z,29.39
2022-08-25T08:55:26.532Z,29.73
2022-08-25T08:57:58.483Z,29.82
2022-08-25T09:00:28.891Z,29.92
2022-08-25T09:03:05.458Z,30.21
2022-08-25T09:05:47.200Z,30.03
2022-08-25T09:08:20.533Z,30.46
2022-08-25T09:11:01.624Z,30.78
2022-08-25T09:13:43.666Z,31.13
2022-08-25T09:16:38.991Z,31.11
2022-08-25T09:19:32.084Z,30.99
2022-08-25T09:22:35.927Z,31.15
2022-08-25T09:25:10.461Z,31.40
2022-08-25T09:27:45.592Z,31.72
2022-08-25T09:30:17.047Z,31.72
2022-08-25T09:32:52.325Z,31.19
2022-08-25T09:35:26.198Z,31.73
2022-08-25T09:38:00.241Z,32.13
2022-08-25T09:40:33.894Z,31.62
2022-08-25T09:43:05.757Z,31.98
2022-08-25T09:45:42.326Z,32.32
2022-08-25T09:48:28.389Z,32.64
2022-08-25T09:51:02.552Z,32.64
2022-08-25T09:53:33.853Z,32.66
2022-08-25T09:56:08.139Z,32.99
2022-08-25T09:58:37.208Z,32.92
2022-08-25T10:01:14.385Z,33.11
2022-08-25T10:04:05.058Z,33.47
2022-08-25T10:06:43.842Z,33.89
2022-08-25T10:09:24.839Z,33.72
2022-08-25T10:11:57.956Z,34.30
2022-08-25T10:14:36.636Z,34.93
2022-08-25T10:17:24.762Z,35.24
2022-08-25T10:20:17.426Z,34.97
2022-08-25T10:22:48.343Z,36.22
2022-08-25T10:25:24.602Z,37.40
2022-08-25T10:28:08.786Z,41.26
2022-08-25T10:30:47.738Z,41.64
2022-08-25T10:33:25.965Z,41.84
2022-08-25T10:36:00.328Z,41.26
2022-08-25T10:38:38.708Z,40.62
2022-08-25T10:41:42.669Z,41.83
2022-08-25T10:44:39.976Z,40.85
2022-08-25T10:47:45.269Z,42.87
2022-08-25T10:50:20.388Z,42.63
2022-08-25T10:53:06.036Z,39.57
2022-08-25T10:55:49.027Z,34.76
2022-08-25T10:58:25.909Z,34.59
2022-08-25T11:01:09.823Z,39.42
2022-08-25T11:03:49.348Z,38.77
2022-08-25T11:06:24.950Z,36.12
2022-08-25T11:08:58.788Z,41.86
2022-08-25T11:11:32.939Z,43.78
2022-08-25T11:14:11.053Z,37.79
2022-08-25T11:16:46.178Z,39.91
2022-08-25T11:19:21.833Z,37.30
2022-08-25T11:21:57.873Z,40.09
2022-08-25T11:25:04.120Z,36.36
2022-08-25T11:27:38.205Z,37.79
2022-08-25T11:30:10.397Z,40.47
2022-08-25T11:32:42.061Z,41.84
2022-08-25T11:35:13.612Z,37.29
2022-08-25T11:37:47.792Z,35.81
2022-08-25T11:40:45.558Z,36.77
2022-08-25T11:43:40.631Z,44.98
2022-08-25T11:46:32.704Z,46.05
2022-08-25T11:49:26.755Z,46.81
2022-08-25T11:51:55.666Z,46.22
2022-08-25T11:54:38.846Z,47.54
2022-08-25T11:57:22.596Z,38.49
2022-08-25T12:00:07.139Z,36.97
2022-08-25T12:02:39.327Z,36.29
2022-08-25T12:05:13.110Z,35.72
2022-08-25T12:08:22.892Z,35.75
2022-08-25T12:10:59.012Z,34.78
2022-08-25T12:13:42.602Z,35.66
2022-08-25T12:16:38.919Z,36.84
2022-08-25T12:19:29.595Z,35.25
2022-08-25T12:22:38.934Z,41.43
2022-08-25T12:25:15.618Z,45.46
2022-08-25T12:27:56.887Z,40.06
2022-08-25T12:30:36.768Z,45.94
2022-08-25T12:33:14.698Z,45.56
2022-08-25T12:35:56.479Z,49.40
2022-08-25T12:38:31.825Z,49.99
2022-08-25T12:41:05.427Z,48.82
2022-08-25T12:43:37.880Z,49.87
2022-08-25T12:46:36.795Z,50.93
2022-08-25T12:49:14.402Z,46.98
2022-08-25T12:51:54.276Z,48.73
2022-08-25T12:54:43.603Z,47.27
2022-08-25T12:57:38.141Z,47.88
2022-08-25T13:00:18.927Z,49.06
2022-08-25T13:03:11.043Z,47.86
2022-08-25T13:06:08.999Z,46.12
2022-08-25T13:08:57.931Z,48.93
2022-08-25T13:11:35.233Z,47.97
2022-08-25T13:14:13.537Z,46.74
2022-08-25T13:16:54.630Z,47.14
2022-08-25T13:19:25.447Z,45.74
2022-08-25T13:21:56.812Z,38.48
2022-08-25T13:24:26.822Z,37.53
2022-08-25T13:26:59.901Z,36.65
2022-08-25T13:29:36.951Z,35.85
2022-08-25T13:32:21.532Z,35.56
2022-08-25T13:37:30.532Z,43.74
2022-08-25T13:40:12.022Z,45.54
2022-08-25T13:42:48.975Z,42.69
2022-08-25T13:45:25.082Z,39.99
2022-08-25T13:47:55.904Z,37.01
2022-08-25T13:50:35.096Z,40.22
2022-08-25T13:53:11.340Z,43.70
2022-08-25T13:55:50.914Z,44.30
2022-08-25T13:58:38.658Z,46.36
2022-08-25T14:01:23.253Z,47.77
2022-08-25T14:04:22.731Z,46.47
2022-08-25T14:07:07.369Z,42.29
2022-08-25T14:09:41.918Z,38.79
2022-08-25T14:15:04.882Z,45.54
2022-08-25T14:17:39.955Z,46.45
2022-08-25T14:20:20.687Z,47.37
2022-08-25T14:22:54.689Z,47.23
2022-08-25T14:25:23.643Z,43.87
2022-08-25T14:28:13.707Z,46.08
2022-08-25T14:30:51.793Z,45.82
2022-08-25T14:33:23.616Z,44.51
2022-08-25T14:35:54.974Z,44.47
2022-08-25T14:38:24.049Z,45.75
2022-08-25T14:40:53.836Z,43.03
2022-08-25T14:43:24.012Z,45.20
2022-08-25T14:46:04.996Z,43.96
2022-08-25T14:48:40.557Z,45.03
2022-08-25T14:51:13.171Z,45.03
2022-08-25T14:53:42.485Z,44.37
2022-08-25T14:56:12.206Z,44.70
2022-08-25T14:58:50.788Z,44.82
2022-08-25T15:01:29.474Z,44.64
2022-08-25T15:04:04.729Z,44.09
2022-08-25T15:06:35.525Z,43.68
2022-08-25T15:09:11.696Z,41.79
2022-08-25T15:11:43.631Z,42.20
2022-08-25T15:14:15.703Z,43.41
2022-08-25T15:16:50.461Z,43.53
2022-08-25T15:19:21.727Z,43.94
2022-08-25T15:21:52.728Z,42.40
2022-08-25T15:24:25.713Z,43.00
2022-08-25T15:26:57.013Z,42.76
2022-08-25T15:29:28.277Z,42.92
2022-08-25T15:32:00.199Z,41.91
2022-08-25T15:34:29.281Z,41.72
2022-08-25T15:36:59.053Z,41.04
2022-08-25T15:39:28.458Z,40.09
2022-08-25T15:41:57.405Z,41.32
2022-08-25T15:44:29.698Z,41.37
2022-08-25T15:47:00.810Z,40.56
2022-08-25T15:49:31.187Z,38.11
2022-08-25T15:52:00.398Z,36.56
2022-08-25T15:54:30.975Z,35.00
2022-08-25T15:57:00.698Z,34.27
2022-08-25T15:59:30.750Z,33.94
2022-08-25T16:02:03.288Z,33.35
2022-08-25T16:04:33.289Z,33.10
2022-08-25T16:07:02.147Z,32.78
2022-08-25T16:09:33.124Z,32.75
2022-08-25T16:12:06.737Z,32.38
2022-08-25T16:14:38.569Z,32.01
2022-08-25T16:17:09.168Z,32.03
2022-08-25T16:19:38.384Z,31.83
2022-08-25T16:22:10.902Z,31.82
2022-08-25T16:24:42.122Z,31.64
2022-08-25T16:27:12.174Z,31.54
2022-08-25T16:29:43.884Z,31.42
2022-08-25T16:32:16.102Z,31.08
2022-08-25T16:34:44.992Z,31.00
2022-08-25T16:37:16.481Z,30.99
2022-08-25T16:39:46.301Z,30.74
2022-08-25T16:42:15.340Z,30.55
2022-08-25T16:44:44.790Z,30.35
2022-08-25T16:47:17.655Z,30.19
2022-08-25T16:49:49.800Z,30.02
2022-08-25T16:52:37.781Z,29.88
2022-08-25T16:55:16.547Z,29.72
2022-08-25T16:57:48.164Z,29.70
2022-08-25T17:00:19.500Z,29.64
2022-08-25T17:02:52.082Z,29.48
2022-08-25T17:05:20.952Z,29.37
2022-08-25T17:08:09.864Z,29.26
2022-08-25T17:10:43.665Z,29.13
2022-08-25T17:13:14.055Z,29.00
2022-08-25T17:15:45.215Z,29.01
2022-08-25T17:18:16.208Z,28.95
2022-08-25T17:20:46.117Z,28.87
2022-08-25T17:23:16.412Z,28.60
2022-08-25T17:25:45.362Z,28.61
2022-08-25T17:28:14.160Z,28.50
2022-08-25T17:30:43.550Z,28.35
2022-08-25T17:33:14.341Z,28.33
2022-08-25T17:35:47.611Z,28.19
2022-08-25T17:38:20.866Z,28.20
2022-08-25T17:40:49.902Z,28.16
2022-08-25T17:43:18.908Z,28.05
2022-08-25T17:45:48.275Z,27.99
2022-08-25T17:48:18.607Z,27.94
2022-08-25T17:50:49.443Z,27.88
2022-08-25T17:53:19.563Z,27.91
2022-08-25T17:55:48.906Z,27.83
2022-08-25T17:58:19.150Z,27.78
2022-08-25T18:00:49.587Z,27.70
2022-08-25T18:03:19.576Z,27.60
2022-08-25T18:05:50.493Z,27.71
2022-08-25T18:08:19.656Z,27.62
2022-08-25T18:11:01.742Z,27.55
2022-08-25T18:13:31.768Z,27.54
2022-08-25T18:16:03.206Z,27.35
2022-08-25T18:18:34.017Z,27.36
2022-08-25T18:21:06.806Z,27.33
2022-08-25T18:23:36.001Z,27.26
2022-08-25T18:26:06.755Z,27.25
2022-08-25T18:28:36.465Z,27.13
2022-08-25T18:31:07.547Z,27.11
2022-08-25T18:33:38.195Z,27.14
2022-08-25T18:36:12.881Z,26.75
2022-08-25T18:39:00.192Z,26.97
2022-08-25T18:41:36.696Z,26.94
2022-08-25T18:44:07.482Z,26.76
2022-08-25T18:46:37.175Z,26.79
2022-08-25T18:49:08.644Z,26.84
2022-08-25T18:51:40.159Z,26.70
2022-08-25T18:54:23.120Z,26.71
2022-08-25T18:56:54.793Z,26.63
2022-08-25T18:59:24.355Z,26.60
2022-08-25T19:01:55.137Z,26.53
2022-08-25T19:04:31.279Z,26.52
2022-08-25T19:07:03.477Z,26.32
2022-08-25T19:09:33.657Z,26.29
2022-08-25T19:12:02.595Z,26.23
2022-08-25T19:14:31.777Z,25.72
2022-08-25T19:17:01.119Z,25.90
2022-08-25T19:19:30.193Z,25.92
2022-08-25T19:21:59.517Z,25.71
2022-08-25T19:24:30.074Z,26.00
2022-08-25T19:27:02.439Z,25.95
2022-08-25T19:29:31.720Z,25.76
2022-08-25T19:32:02.720Z,25.52
2022-08-25T19:34:36.184Z,25.52
2022-08-25T19:37:06.965Z,25.41
2022-08-25T19:39:41.665Z,25.50
2022-08-25T19:42:34.826Z,25.57
2022-08-25T19:45:01.172Z,25.56
2022-08-25T19:47:32.202Z,25.60
2022-08-25T19:50:01.538Z,25.54
2022-08-25T19:52:30.668Z,25.35
2022-08-25T19:55:02.881Z,25.40
2022-08-25T19:57:42.901Z,25.34
2022-08-25T20:00:16.656Z,25.12
2022-08-25T20:02:45.917Z,25.05
2022-08-25T20:05:23.671Z,24.99
2022-08-25T20:07:55.145Z,24.84
2022-08-25T20:10:28.017Z,24.91
2022-08-25T20:13:00.806Z,24.69
2022-08-25T20:15:34.342Z,24.72
2022-08-25T20:18:06.549Z,24.63
2022-08-25T20:20:36.363Z,24.51
2022-08-25T20:23:22.892Z,24.40
2022-08-25T20:25:53.145Z,24.36
2022-08-25T20:28:22.125Z,24.22
2022-08-25T20:30:50.943Z,24.26
2022-08-25T20:33:22.615Z,24.23
2022-08-25T20:35:53.166Z,24.21
2022-08-25T20:38:22.510Z,24.25
2022-08-25T20:40:53.209Z,24.47
2022-08-25T20:43:22.141Z,24.30
2022-08-25T20:45:51.040Z,24.18
2022-08-25T20:48:19.881Z,24.10
2022-08-25T20:50:54.332Z,24.17
2022-08-25T20:53:27.124Z,24.07
2022-08-25T20:55:57.797Z,24.00
2022-08-25T20:58:26.954Z,23.97
2022-08-25T21:00:56.498Z,23.78
2022-08-25T21:03:25.420Z,23.83
2022-08-25T21:05:54.397Z,23.78
2022-08-25T21:08:23.828Z,23.70
2022-08-25T21:10:54.718Z,23.60
2022-08-25T21:13:24.847Z,23.66
2022-08-25T21:15:54.535Z,23.69
2022-08-25T21:18:23.414Z,23.64
2022-08-25T21:20:53.017Z,23.54
2022-08-25T21:23:21.959Z,23.41
2022-08-25T21:25:51.783Z,23.34
2022-08-25T21:28:20.715Z,23.24
2022-08-25T21:30:51.450Z,23.23
2022-08-25T21:33:26.345Z,23.27
2022-08-25T21:35:57.169Z,23.19
2022-08-25T21:38:27.267Z,23.08
2022-08-25T21:40:57.223Z,23.23
2022-08-25T21:43:26.622Z,23.21
2022-08-25T21:45:56.744Z,23.20
2022-08-25T21:48:26.216Z,23.06
2022-08-25T21:51:04.536Z,23.07
2022-08-25T21:53:35.623Z,22.95
2022-08-25T21:56:06.155Z,22.91
2022-08-25T21:58:36.391Z,22.82
2022-08-25T22:01:10.977Z,22.85
2022-08-25T22:03:41.066Z,22.80
2022-08-25T22:06:11.675Z,22.89
2022-08-25T22:08:43.718Z,22.90
2022-08-25T22:11:18.550Z,22.99
2022-08-25T22:13:50.410Z,22.92
2022-08-25T22:16:20.880Z,22.86
2022-08-25T22:18:51.471Z,22.82
2022-08-25T22:21:23.229Z,22.36
2022-08-25T22:23:52.072Z,22.69
2022-08-25T22:26:22.065Z,22.74
2022-08-25T22:28:51.333Z,22.86
2022-08-25T22:31:21.492Z,22.87
2022-08-25T22:33:50.803Z,22.97
2022-08-25T22:36:21.661Z,22.77
2022-08-25T22:38:51.328Z,22.57
2022-08-25T22:41:21.682Z,22.56
2022-08-25T22:43:51.796Z,22.67
2022-08-25T22:46:25.702Z,22.52
2022-08-25T22:48:58.436Z,22.56
2022-08-25T22:51:31.631Z,22.65
2022-08-25T22:54:02.101Z,22.44
2022-08-25T22:56:35.650Z,22.24
2022-08-25T22:59:07.967Z,22.35
2022-08-25T23:01:39.752Z,22.38
2022-08-25T23:04:09.032Z,22.28
2022-08-25T23:06:39.645Z,22.29
2022-08-25T23:09:10.866Z,22.40
2022-08-25T23:11:40.154Z,22.52
2022-08-25T23:14:11.166Z,22.60
2022-08-25T23:16:42.899Z,22.50
2022-08-25T23:19:13.985Z,22.43
2022-08-25T23:22:01.675Z,22.04
2022-08-25T23:24:31.083Z,22.23
2022-08-25T23:27:02.282Z,22.25
2022-08-25T23:29:34.267Z,22.10
2022-08-25T23:32:07.396Z,22.23
2022-08-25T23:34:39.505Z,22.25
2022-08-25T23:37:08.792Z,22.07
2022-08-25T23:39:39.284Z,21.98
2022-08-25T23:42:08.913Z,22.03
2022-08-25T23:44:38.272Z,21.99
2022-08-25T23:47:08.402Z,22.01
2022-08-25T23:49:41.136Z,21.90
2022-08-25T23:52:09.913Z,21.97
2022-08-25T23:54:39.390Z,22.03
2022-08-25T23:57:08.823Z,22.02
2022-08-25T23:59:38.506Z,22.01
